createdAt,value
2019-05-19T04:30:23.165Z,99.90
2019-05-19T04:32:52.166Z,99.90
2019-05-19T04:35:21.243Z,99.90
2019-05-19T04:37:50.231Z,99.90
2019-05-19T04:40:21.092Z,99.90
2019-05-19T04:42:50.099Z,99.90
2019-05-19T04:45:19.244Z,99.90
2019-05-19T04:47:51.355Z,99.90
2019-05-19T04:50:20.420Z,99.90
2019-05-19T04:52:49.487Z,99.90
2019-05-19T04:55:18.654Z,99.90
2019-05-19T04:57:47.583Z,99.90
2019-05-19T05:00:16.903Z,99.90
2019-05-19T05:02:45.995Z,99.90
2019-05-19T05:05:15.725Z,99.90
2019-05-19T05:07:44.623Z,99.90
2019-05-19T05:10:13.707Z,99.90
2019-05-19T05:12:42.735Z,99.90
2019-05-19T05:15:12.021Z,99.90
2019-05-19T05:17:44.128Z,99.90
2019-05-19T05:20:13.212Z,99.90
2019-05-19T05:22:42.242Z,99.90
2019-05-19T05:25:11.410Z,99.90
2019-05-19T05:27:40.416Z,99.90
2019-05-19T05:30:09.819Z,99.90
2019-05-19T05:32:38.715Z,99.90
2019-05-19T05:35:07.885Z,99.90
2019-05-19T05:37:36.897Z,99.90
2019-05-19T05:40:06.856Z,99.90
2019-05-19T05:42:35.950Z,99.90
2019-05-19T05:45:05.378Z,99.90
2019-05-19T05:47:34.458Z,99.90
2019-05-19T05:50:03.657Z,99.90
2019-05-19T05:52:38.419Z,99.90
2019-05-19T05:55:03.639Z,99.90
2019-05-19T05:57:32.727Z,99.90
2019-05-19T06:00:01.762Z,99.90
2019-05-19T06:02:30.814Z,99.90
2019-05-19T06:04:59.818Z,99.90
2019-05-19T06:07:28.808Z,99.90
2019-05-19T06:09:57.820Z,99.90
2019-05-19T06:12:26.835Z,99.90
2019-05-19T06:14:55.817Z,99.90
2019-05-19T06:17:24.974Z,99.90
2019-05-19T06:19:54.120Z,99.90
2019-05-19T06:22:23.056Z,99.90
2019-05-19T06:24:52.136Z,99.90
2019-05-19T06:27:21.211Z,99.90
2019-05-19T06:29:50.127Z,99.90
2019-05-19T06:32:26.206Z,99.90
2019-05-19T06:34:55.358Z,99.90
2019-05-19T06:37:24.399Z,99.90
2019-05-19T06:39:53.467Z,99.90
2019-05-19T06:42:22.448Z,99.90
2019-05-19T06:44:51.384Z,99.90
2019-05-19T06:47:20.485Z,99.90
2019-05-19T06:49:49.582Z,99.90
2019-05-19T06:52:18.710Z,99.90
2019-05-19T06:54:47.810Z,99.90
2019-05-19T06:57:16.792Z,99.90
2019-05-19T06:59:45.815Z,99.90
2019-05-19T07:02:14.803Z,99.90
2019-05-19T07:04:43.845Z,99.90
2019-05-19T07:07:13.007Z,99.90
2019-05-19T07:09:55.957Z,99.90
2019-05-19T07:12:12.725Z,99.90
2019-05-19T07:14:41.860Z,99.90
2019-05-19T07:17:10.933Z,99.90
2019-05-19T07:19:39.986Z,99.90
2019-05-19T07:22:08.967Z,99.90
2019-05-19T07:24:37.867Z,99.90
2019-05-19T07:27:09.096Z,99.90
2019-05-19T07:29:38.080Z,99.90
2019-05-19T07:32:07.078Z,99.90
2019-05-19T07:34:36.041Z,99.90
2019-05-19T07:37:05.082Z,99.90
2019-05-19T07:39:34.090Z,99.90
2019-05-19T07:42:03.158Z,99.90
2019-05-19T07:44:32.163Z,99.90
2019-05-19T07:47:01.155Z,99.90
2019-05-19T07:49:30.152Z,99.90
2019-05-19T07:51:59.235Z,99.90
2019-05-19T07:54:28.267Z,99.90
2019-05-19T07:56:57.218Z,99.90
2019-05-19T07:59:26.285Z,99.90
2019-05-19T08:01:55.408Z,99.90
2019-05-19T08:04:24.401Z,99.90
2019-05-19T08:06:53.467Z,99.90
2019-05-19T08:09:22.468Z,99.90
2019-05-19T08:11:51.716Z,99.90
2019-05-19T08:14:20.887Z,99.90
2019-05-19T08:16:49.896Z,99.90
2019-05-19T08:19:18.895Z,99.90
2019-05-19T08:21:47.973Z,99.90
2019-05-19T08:24:17.038Z,99.90
2019-05-19T08:26:46.106Z,99.90
2019-05-19T08:29:15.115Z,99.90
2019-05-19T08:31:44.210Z,99.90
2019-05-19T08:34:13.242Z,98.50
2019-05-19T08:36:42.335Z,96.30
2019-05-19T08:39:11.377Z,99.00
2019-05-19T08:41:40.347Z,99.90
2019-05-19T08:44:09.525Z,98.70
2019-05-19T08:46:38.583Z,99.90
2019-05-19T08:49:07.608Z,99.90
2019-05-19T08:51:36.705Z,99.90
2019-05-19T08:54:14.269Z,99.90
2019-05-19T08:56:36.514Z,99.90
2019-05-19T08:59:05.602Z,99.90
2019-05-19T09:01:34.641Z,99.90
2019-05-19T09:04:03.643Z,99.90
2019-05-19T09:06:32.712Z,99.90
2019-05-19T09:09:01.725Z,99.30
2019-05-19T09:11:30.727Z,99.90
2019-05-19T09:13:59.725Z,99.90
2019-05-19T09:16:28.942Z,99.90
2019-05-19T09:18:58.019Z,99.90
2019-05-19T09:21:27.249Z,97.70
2019-05-19T09:23:56.433Z,96.80
2019-05-19T09:26:25.432Z,96.30
2019-05-19T09:28:54.419Z,93.40
2019-05-19T09:31:23.360Z,91.70
2019-05-19T09:33:52.356Z,94.80
2019-05-19T09:36:21.457Z,95.80
2019-05-19T09:38:50.508Z,94.50
2019-05-19T09:41:19.506Z,93.60
2019-05-19T09:43:48.590Z,92.40
2019-05-19T09:46:17.830Z,91.00
2019-05-19T09:48:48.567Z,91.30
2019-05-19T09:51:17.579Z,90.90
2019-05-19T09:53:46.575Z,92.50
2019-05-19T09:56:15.572Z,90.90
2019-05-19T09:58:44.589Z,89.50
2019-05-19T10:01:13.590Z,86.50
2019-05-19T10:03:42.651Z,83.30
2019-05-19T10:06:11.728Z,86.90
2019-05-19T10:09:03.284Z,83.30
2019-05-19T10:11:54.776Z,83.90
2019-05-19T10:14:23.760Z,76.40
2019-05-19T10:16:52.785Z,78.30
2019-05-19T10:19:21.770Z,78.30
2019-05-19T10:21:50.919Z,81.20
2019-05-19T10:24:20.345Z,84.30
2019-05-19T10:26:49.416Z,79.60
2019-05-19T10:29:18.517Z,79.10
2019-05-19T10:31:47.663Z,84.50
2019-05-19T10:34:16.761Z,78.60
2019-05-19T10:36:45.951Z,77.80
2019-05-19T10:39:14.997Z,72.90
2019-05-19T10:41:44.075Z,77.00
2019-05-19T10:44:13.122Z,74.20
2019-05-19T10:46:42.194Z,69.20
2019-05-19T10:49:11.223Z,67.90
2019-05-19T10:51:40.281Z,69.60
2019-05-19T10:54:09.358Z,66.40
2019-05-19T10:56:38.355Z,65.20
2019-05-19T10:59:12.068Z,68.60
2019-05-19T11:01:40.788Z,63.30
2019-05-19T11:04:09.858Z,63.20
2019-05-19T11:06:39.002Z,63.80
2019-05-19T11:09:08.417Z,60.70
2019-05-19T11:11:37.494Z,58.70
2019-05-19T11:14:06.496Z,57.40
2019-05-19T11:16:35.638Z,55.60
2019-05-19T11:19:04.871Z,58.90
2019-05-19T11:21:34.132Z,58.30
2019-05-19T11:24:04.119Z,60.70
2019-05-19T11:26:33.670Z,61.20
2019-05-19T11:29:02.827Z,53.40
2019-05-19T11:31:32.048Z,56.80
2019-05-19T11:34:01.060Z,58.80
2019-05-19T11:36:30.183Z,57.10
2019-05-19T11:38:59.547Z,58.70
2019-05-19T11:41:28.843Z,56.40
2019-05-19T11:43:58.250Z,57.80
2019-05-19T11:46:27.236Z,57.20
2019-05-19T11:48:56.234Z,59.30
2019-05-19T11:51:25.298Z,56.60
2019-05-19T11:53:54.274Z,56.10
2019-05-19T11:56:23.294Z,57.90
2019-05-19T11:58:52.288Z,55.70
2019-05-19T12:01:21.403Z,53.10
2019-05-19T12:03:50.957Z,55.50
2019-05-19T12:06:20.478Z,54.40
2019-05-19T12:08:50.204Z,51.80
2019-05-19T12:11:19.390Z,54.80
2019-05-19T12:13:48.970Z,54.30
2019-05-19T12:16:18.621Z,49.50
2019-05-19T12:18:47.694Z,52.30
2019-05-19T12:21:17.247Z,50.70
2019-05-19T12:23:46.214Z,50.60
2019-05-19T12:26:23.296Z,47.20
2019-05-19T12:28:46.061Z,53.90
2019-05-19T12:31:15.210Z,51.60
2019-05-19T12:33:51.869Z,46.10
2019-05-19T12:36:16.070Z,47.20
2019-05-19T12:38:45.833Z,49.60
2019-05-19T12:41:15.575Z,47.30
2019-05-19T12:43:45.118Z,47.10
2019-05-19T12:46:16.629Z,47.70
2019-05-19T12:48:45.918Z,47.20
2019-05-19T12:51:15.562Z,47.80
2019-05-19T12:53:44.802Z,51.10
2019-05-19T12:56:14.493Z,51.00
2019-05-19T12:58:44.159Z,52.00
2019-05-19T13:01:13.368Z,51.50
2019-05-19T13:03:42.379Z,49.90
2019-05-19T13:06:11.464Z,50.60
2019-05-19T13:08:40.616Z,49.50
2019-05-19T13:11:09.643Z,51.60
2019-05-19T13:13:38.850Z,52.80
2019-05-19T13:16:07.768Z,53.70
2019-05-19T13:18:36.916Z,52.80
2019-05-19T13:21:06.101Z,49.30
2019-05-19T13:23:35.244Z,48.90
2019-05-19T13:26:04.385Z,48.70
2019-05-19T13:28:33.411Z,51.50
2019-05-19T13:31:03.012Z,52.20
2019-05-19T13:33:32.657Z,50.00
2019-05-19T13:36:03.668Z,48.10
2019-05-19T13:38:33.213Z,50.00
2019-05-19T13:41:03.019Z,48.70
2019-05-19T13:43:32.714Z,48.70
2019-05-19T13:46:02.538Z,50.30
2019-05-19T13:48:32.214Z,48.00
2019-05-19T13:51:01.282Z,47.40
2019-05-19T13:53:30.968Z,46.50
2019-05-19T13:56:00.715Z,44.60
2019-05-19T13:58:30.488Z,46.10
2019-05-19T14:01:00.345Z,48.40
2019-05-19T14:03:29.988Z,45.30
2019-05-19T14:05:59.678Z,45.30
2019-05-19T14:08:29.657Z,41.40
2019-05-19T14:10:59.478Z,42.80
2019-05-19T14:13:28.753Z,40.30
2019-05-19T14:15:58.648Z,43.80
2019-05-19T14:18:28.069Z,45.00
2019-05-19T14:20:57.765Z,42.50
2019-05-19T14:23:27.385Z,44.30
2019-05-19T14:25:56.816Z,43.50
2019-05-19T14:28:26.494Z,46.20
2019-05-19T14:30:56.032Z,44.00
2019-05-19T14:33:25.741Z,46.30
2019-05-19T14:35:54.723Z,46.30
2019-05-19T14:38:24.325Z,46.70
2019-05-19T14:40:53.306Z,44.50
2019-05-19T14:43:22.724Z,45.70
2019-05-19T14:45:51.820Z,48.30
2019-05-19T14:48:20.884Z,49.80
2019-05-19T14:50:49.910Z,49.50
2019-05-19T14:53:18.935Z,51.90
2019-05-19T14:55:48.049Z,55.40
2019-05-19T14:58:17.036Z,54.10
2019-05-19T15:00:47.432Z,51.80
2019-05-19T15:03:16.559Z,47.40
2019-05-19T15:05:45.631Z,48.40
2019-05-19T15:08:14.730Z,49.30
2019-05-19T15:10:43.799Z,48.50
2019-05-19T15:13:12.807Z,46.40
2019-05-19T15:15:41.888Z,46.70
2019-05-19T15:18:10.975Z,48.10
2019-05-19T15:20:39.947Z,49.60
2019-05-19T15:23:08.995Z,51.10
2019-05-19T15:25:37.907Z,51.00
2019-05-19T15:28:06.823Z,51.00
2019-05-19T15:30:35.992Z,50.90
2019-05-19T15:33:05.090Z,51.50
2019-05-19T15:35:34.081Z,68.70
2019-05-19T15:38:03.168Z,57.10
2019-05-19T15:40:32.098Z,56.70
2019-05-19T15:43:01.501Z,57.50
2019-05-19T15:45:30.925Z,56.40
2019-05-19T15:48:00.188Z,59.60
2019-05-19T15:50:29.193Z,59.40
2019-05-19T15:52:58.211Z,59.30
2019-05-19T15:55:27.274Z,58.30
2019-05-19T15:57:56.411Z,60.00
2019-05-19T16:00:25.445Z,59.60
2019-05-19T16:02:54.492Z,57.90
2019-05-19T16:05:23.568Z,60.60
2019-05-19T16:07:52.668Z,58.70
2019-05-19T16:10:21.759Z,61.00
2019-05-19T16:12:50.751Z,59.50
2019-05-19T16:15:19.915Z,59.10
2019-05-19T16:17:49.185Z,60.80
2019-05-19T16:20:18.583Z,59.90
2019-05-19T16:22:47.680Z,62.80
2019-05-19T16:25:17.003Z,58.70
2019-05-19T16:27:45.967Z,58.70
2019-05-19T16:30:15.751Z,62.50
2019-05-19T16:32:44.838Z,59.30
2019-05-19T16:35:13.912Z,58.30
2019-05-19T16:37:42.982Z,59.30
2019-05-19T16:40:12.556Z,62.00
2019-05-19T16:42:41.603Z,59.10
2019-05-19T16:45:11.094Z,59.90
2019-05-19T16:47:40.090Z,60.50
2019-05-19T16:50:09.277Z,58.10
2019-05-19T16:52:38.438Z,59.40
2019-05-19T16:55:27.523Z,59.30
2019-05-19T16:57:56.643Z,59.60
2019-05-19T17:00:26.495Z,58.70
2019-05-19T17:02:55.666Z,58.40
2019-05-19T17:05:24.773Z,59.80
2019-05-19T17:07:53.845Z,61.40
2019-05-19T17:10:22.958Z,60.60
2019-05-19T17:12:52.075Z,60.30
2019-05-19T17:15:21.397Z,60.60
2019-05-19T17:17:50.625Z,60.00
2019-05-19T17:20:20.236Z,60.60
2019-05-19T17:22:49.277Z,62.40
2019-05-19T17:25:18.610Z,63.20
2019-05-19T17:27:47.798Z,65.30
2019-05-19T17:30:20.492Z,62.90
2019-05-19T17:32:51.049Z,65.00
2019-05-19T17:35:20.279Z,61.40
2019-05-19T17:37:49.399Z,67.50
2019-05-19T17:40:19.137Z,68.30
2019-05-19T17:42:48.416Z,70.50
2019-05-19T17:45:18.486Z,73.50
2019-05-19T17:47:47.524Z,72.40
2019-05-19T17:50:19.848Z,72.80
2019-05-19T17:52:48.961Z,72.70
2019-05-19T17:55:18.027Z,72.90
2019-05-19T17:57:47.799Z,72.60
2019-05-19T18:00:21.015Z,72.40
2019-05-19T18:02:50.159Z,66.60
2019-05-19T18:05:19.266Z,74.30
2019-05-19T18:07:48.187Z,74.70
2019-05-19T18:10:17.267Z,75.80
2019-05-19T18:12:46.274Z,76.30
2019-05-19T18:15:15.738Z,78.00
2019-05-19T18:17:44.826Z,85.20
2019-05-19T18:20:23.356Z,94.60
2019-05-19T18:22:44.955Z,97.80
2019-05-19T18:25:14.159Z,99.90
2019-05-19T18:27:43.287Z,99.90
2019-05-19T18:30:12.558Z,99.90
2019-05-19T18:32:41.630Z,99.90
2019-05-19T18:35:11.040Z,99.90
2019-05-19T18:37:40.155Z,99.90
2019-05-19T18:40:09.696Z,99.90
2019-05-19T18:42:39.060Z,99.90
2019-05-19T18:45:08.891Z,99.90
2019-05-19T18:47:38.143Z,99.90
2019-05-19T18:50:07.559Z,99.90
2019-05-19T18:52:36.631Z,99.90
2019-05-19T18:55:05.906Z,99.90
2019-05-19T18:57:34.991Z,99.90
2019-05-19T19:00:04.620Z,99.90
2019-05-19T19:02:33.800Z,99.90
2019-05-19T19:05:02.911Z,99.90
2019-05-19T19:07:50.013Z,99.90
2019-05-19T19:10:19.239Z,99.90
2019-05-19T19:12:48.781Z,99.90
2019-05-19T19:15:17.836Z,99.90
2019-05-19T19:17:46.816Z,99.90
2019-05-19T19:20:16.644Z,99.90
2019-05-19T19:22:45.944Z,99.90
2019-05-19T19:25:15.235Z,99.90
2019-05-19T19:27:44.525Z,99.90
2019-05-19T19:30:13.999Z,99.90
2019-05-19T19:32:43.253Z,99.90
2019-05-19T19:35:12.540Z,99.90
2019-05-19T19:37:41.535Z,99.90
2019-05-19T19:40:12.900Z,99.90
2019-05-19T19:42:42.013Z,99.90
2019-05-19T19:45:11.206Z,99.90
2019-05-19T19:47:40.325Z,99.90
2019-05-19T19:50:10.171Z,99.90
2019-05-19T19:52:39.335Z,99.90
2019-05-19T19:55:08.546Z,99.90
2019-05-19T19:57:37.651Z,99.90
2019-05-19T20:00:17.938Z,99.90
2019-05-19T20:02:37.993Z,99.90
2019-05-19T20:05:07.233Z,99.90
2019-05-19T20:07:36.336Z,99.90
2019-05-19T20:10:05.552Z,99.90
2019-05-19T20:12:34.560Z,99.90
2019-05-19T20:15:03.644Z,99.90
2019-05-19T20:17:32.673Z,99.90
2019-05-19T20:20:01.634Z,99.90
2019-05-19T20:22:30.634Z,99.90
2019-05-19T20:24:59.720Z,99.90
2019-05-19T20:27:28.855Z,99.90
2019-05-19T20:29:57.921Z,99.90
2019-05-19T20:32:26.853Z,99.90
2019-05-19T20:34:55.889Z,99.90
2019-05-19T20:37:24.965Z,99.90
2019-05-19T20:39:54.060Z,99.90
2019-05-19T20:42:23.134Z,99.90
2019-05-19T20:44:52.331Z,99.90
2019-05-19T20:47:21.462Z,99.90
2019-05-19T20:49:50.461Z,99.90
2019-05-19T20:52:19.523Z,99.90
2019-05-19T20:54:48.553Z,99.90
2019-05-19T20:57:17.498Z,99.90
2019-05-19T20:59:46.544Z,99.90
2019-05-19T21:02:15.575Z,99.90
2019-05-19T21:04:44.615Z,99.90
2019-05-19T21:07:13.611Z,99.90
2019-05-19T21:09:42.703Z,99.90
2019-05-19T21:12:11.770Z,99.90
2019-05-19T21:14:40.694Z,99.90
2019-05-19T21:17:09.734Z,99.90
2019-05-19T21:19:38.901Z,99.90
2019-05-19T21:22:07.956Z,99.90
2019-05-19T21:24:36.883Z,99.90
2019-05-19T21:27:05.972Z,99.90
2019-05-19T21:29:34.959Z,99.90
2019-05-19T21:32:04.159Z,99.90
2019-05-19T21:34:33.152Z,99.90
2019-05-19T21:37:02.086Z,99.90
2019-05-19T21:39:31.024Z,99.90
2019-05-19T21:41:59.955Z,99.90
2019-05-19T21:44:29.022Z,99.90
2019-05-19T21:46:58.053Z,99.90
2019-05-19T21:49:27.031Z,99.90
2019-05-19T21:51:55.979Z,99.90
2019-05-19T21:54:25.022Z,99.90
2019-05-19T21:56:54.109Z,99.90
2019-05-19T21:59:23.103Z,99.90
2019-05-19T22:01:52.340Z,99.90
2019-05-19T22:04:21.378Z,99.90
2019-05-19T22:06:57.109Z,99.90
2019-05-19T22:09:26.043Z,99.90
2019-05-19T22:11:54.981Z,99.90
2019-05-19T22:14:23.944Z,99.90
2019-05-19T22:16:52.972Z,99.90
2019-05-19T22:19:21.958Z,99.90
2019-05-19T22:21:51.006Z,99.90
2019-05-19T22:24:19.943Z,99.90
2019-05-19T22:26:49.010Z,99.90
2019-05-19T22:29:18.134Z,99.90
